createdAt,value
2023-04-11T04:00:46.593Z,98.49
2023-04-11T04:01:47.641Z,99.66
2023-04-11T04:02:47.680Z,99.35
2023-04-11T04:03:47.876Z,99.15
2023-04-11T04:04:47.534Z,99.99
2023-04-11T04:05:47.487Z,99.15
2023-04-11T04:06:47.442Z,98.74
2023-04-11T04:07:47.436Z,99.00
2023-04-11T04:08:47.417Z,97.87
2023-04-11T04:09:47.420Z,97.15
2023-04-11T04:10:47.442Z,96.43
2023-04-11T04:11:47.478Z,95.81
2023-04-11T04:12:47.407Z,95.25
2023-04-11T04:13:47.376Z,95.05
2023-04-11T04:14:47.377Z,94.54
2023-04-11T04:15:47.367Z,95.15
2023-04-11T04:16:47.364Z,95.36
2023-04-11T04:17:47.407Z,96.28
2023-04-11T04:18:47.345Z,95.87
2023-04-11T04:19:47.301Z,95.97
2023-04-11T04:20:47.327Z,96.48
2023-04-11T04:21:47.339Z,95.77
2023-04-11T04:22:47.366Z,96.18
2023-04-11T04:23:47.304Z,97.10
2023-04-11T04:24:47.262Z,96.39
2023-04-11T04:25:47.271Z,96.39
2023-04-11T04:26:47.238Z,95.36
2023-04-11T04:27:47.224Z,95.01
2023-04-11T04:28:47.219Z,95.21
2023-04-11T04:29:47.210Z,94.90
2023-04-11T04:30:47.254Z,94.59
2023-04-11T04:31:47.225Z,95.62
2023-04-11T04:32:47.206Z,94.74
2023-04-11T04:33:47.159Z,95.36
2023-04-11T04:34:47.210Z,95.36
2023-04-11T04:35:47.186Z,94.08
2023-04-11T04:36:47.164Z,94.70
2023-04-11T04:37:47.111Z,93.77
2023-04-11T04:38:47.148Z,94.39
2023-04-11T04:39:47.101Z,93.98
2023-04-11T04:40:48.936Z,93.98
2023-04-11T04:41:47.067Z,94.70
2023-04-11T04:42:47.078Z,94.18
2023-04-11T04:43:47.052Z,94.29
2023-04-11T04:44:47.046Z,94.39
2023-04-11T04:45:47.140Z,95.67
2023-04-11T04:46:47.063Z,93.92
2023-04-11T04:47:47.055Z,94.12
2023-04-11T04:48:47.007Z,94.12
2023-04-11T04:49:46.992Z,94.43
2023-04-11T04:50:47.028Z,94.12
2023-04-11T04:51:46.989Z,93.71
2023-04-11T04:52:46.957Z,93.30
2023-04-11T04:53:46.946Z,94.02
2023-04-11T04:54:46.952Z,94.02
2023-04-11T04:55:46.976Z,93.71
2023-04-11T04:56:46.920Z,93.98
2023-04-11T04:57:46.939Z,93.92
2023-04-11T04:58:46.904Z,93.36
2023-04-11T04:59:46.895Z,94.29
2023-04-11T05:00:46.952Z,95.21
2023-04-11T05:01:46.915Z,94.18
2023-04-11T05:02:46.926Z,94.90
2023-04-11T05:03:46.946Z,95.10
2023-04-11T05:04:46.874Z,94.49
2023-04-11T05:05:46.849Z,90.42
2023-04-11T05:06:46.849Z,90.88
2023-04-11T05:07:46.793Z,91.23
2023-04-11T05:08:46.788Z,92.57
2023-04-11T05:09:46.782Z,93.12
2023-04-11T05:10:46.818Z,93.54
2023-04-11T05:11:46.767Z,92.20
2023-04-11T05:12:46.765Z,92.50
2023-04-11T05:13:46.751Z,92.30
2023-04-11T05:14:46.725Z,93.54
2023-04-11T05:15:46.739Z,92.61
2023-04-11T05:16:46.817Z,92.82
2023-04-11T05:17:46.735Z,91.58
2023-04-11T05:18:46.739Z,92.61
2023-04-11T05:19:46.685Z,92.61
2023-04-11T05:20:46.710Z,93.43
2023-04-11T05:21:46.656Z,93.43
2023-04-11T05:22:46.691Z,93.33
2023-04-11T05:23:46.646Z,93.64
2023-04-11T05:24:46.643Z,93.74
2023-04-11T05:25:46.652Z,94.15
2023-04-11T05:26:46.645Z,94.56
2023-04-11T05:27:46.589Z,94.67
2023-04-11T05:28:46.606Z,94.26
2023-04-11T05:29:46.596Z,94.77
2023-04-11T05:30:46.642Z,94.77
2023-04-11T05:31:46.611Z,95.59
2023-04-11T05:32:46.619Z,95.28
2023-04-11T05:33:46.532Z,96.11
2023-04-11T05:34:46.531Z,95.39
2023-04-11T05:35:46.568Z,95.59
2023-04-11T05:36:46.501Z,95.28
2023-04-11T05:37:46.507Z,95.86
2023-04-11T05:38:46.513Z,95.65
2023-04-11T05:39:46.528Z,96.27
2023-04-11T05:40:46.537Z,95.65
2023-04-11T05:41:46.492Z,95.55
2023-04-11T05:42:46.451Z,95.34
2023-04-11T05:43:46.456Z,95.86
2023-04-11T05:44:46.454Z,95.86
2023-04-11T05:45:46.490Z,96.37
2023-04-11T05:46:46.422Z,96.89
2023-04-11T05:47:46.419Z,96.47
2023-04-11T05:48:46.385Z,96.68
2023-04-11T05:49:46.488Z,96.68
2023-04-11T05:50:46.382Z,96.17
2023-04-11T05:51:46.347Z,95.75
2023-04-11T05:52:46.348Z,95.34
2023-04-11T05:53:46.344Z,94.48
2023-04-11T05:54:46.309Z,94.17
2023-04-11T05:55:46.360Z,94.68
2023-04-11T05:56:46.312Z,94.68
2023-04-11T05:57:46.295Z,94.89
2023-04-11T05:58:46.319Z,94.07
2023-04-11T05:59:46.296Z,94.68
2023-04-11T06:00:46.287Z,94.48
2023-04-11T06:01:46.261Z,93.71
2023-04-11T06:02:46.374Z,92.89
2023-04-11T06:03:46.423Z,92.27
2023-04-11T06:04:46.301Z,91.76
2023-04-11T06:05:46.208Z,91.97
2023-04-11T06:06:46.223Z,92.17
2023-04-11T06:07:46.178Z,92.17
2023-04-11T06:08:46.181Z,90.53
2023-04-11T06:09:46.160Z,90.83
2023-04-11T06:10:46.215Z,91.14
2023-04-11T06:11:46.148Z,91.00
2023-04-11T06:12:46.146Z,90.48
2023-04-11T06:13:46.106Z,91.31
2023-04-11T06:14:46.117Z,91.31
2023-04-11T06:15:46.161Z,91.00
2023-04-11T06:16:46.116Z,91.61
2023-04-11T06:17:46.119Z,90.89
2023-04-11T06:18:46.060Z,91.82
2023-04-11T06:19:46.047Z,90.69
2023-04-11T06:20:46.077Z,90.48
2023-04-11T06:21:46.077Z,91.41
2023-04-11T06:22:46.041Z,90.18
2023-04-11T06:23:46.017Z,89.97
2023-04-11T06:24:46.022Z,89.62
2023-04-11T06:25:46.003Z,90.44
2023-04-11T06:26:45.993Z,91.06
2023-04-11T06:27:45.959Z,90.44
2023-04-11T06:28:45.977Z,90.80
2023-04-11T06:29:45.972Z,89.46
2023-04-11T06:30:45.960Z,89.15
2023-04-11T06:31:45.945Z,89.62
2023-04-11T06:32:45.950Z,89.11
2023-04-11T06:33:45.938Z,88.39
2023-04-11T06:34:45.906Z,88.90
2023-04-11T06:35:45.974Z,89.31
2023-04-11T06:36:45.870Z,89.58
2023-04-11T06:37:45.873Z,88.45
2023-04-11T06:38:45.854Z,87.73
2023-04-11T06:39:45.879Z,87.73
2023-04-11T06:40:45.848Z,88.35
2023-04-11T06:41:45.822Z,86.91
2023-04-11T06:42:45.807Z,87.90
2023-04-11T06:43:45.811Z,86.66
2023-04-11T06:44:45.906Z,87.38
2023-04-11T06:45:45.812Z,88.41
2023-04-11T06:46:46.524Z,87.08
2023-04-11T06:47:45.831Z,87.08
2023-04-11T06:48:45.778Z,87.73
2023-04-11T06:49:45.735Z,88.96
2023-04-11T06:50:45.752Z,89.83
2023-04-11T06:51:45.703Z,90.24
2023-04-11T06:52:45.737Z,89.01
2023-04-11T06:53:45.718Z,89.72
2023-04-11T06:54:45.698Z,89.93
2023-04-11T06:55:45.704Z,89.21
2023-04-11T06:56:45.705Z,89.93
2023-04-11T06:57:45.670Z,88.70
2023-04-11T06:58:45.655Z,89.01
2023-04-11T06:59:45.657Z,88.49
2023-04-11T07:00:45.680Z,88.18
2023-04-11T07:01:45.717Z,87.73
2023-04-11T07:02:45.824Z,87.43
2023-04-11T07:03:45.848Z,86.81
2023-04-11T07:04:45.705Z,87.73
2023-04-11T07:05:45.579Z,86.66
2023-04-11T07:06:45.571Z,86.77
2023-04-11T07:07:45.549Z,87.34
2023-04-11T07:08:45.528Z,85.95
2023-04-11T07:09:45.517Z,85.85
2023-04-11T07:10:45.559Z,85.64
2023-04-11T07:11:45.510Z,84.10
2023-04-11T07:12:45.510Z,85.91
2023-04-11T07:13:45.541Z,84.47
2023-04-11T07:14:45.470Z,84.23
2023-04-11T07:15:45.526Z,83.92
2023-04-11T07:16:45.877Z,84.74
2023-04-11T07:17:45.466Z,84.74
2023-04-11T07:18:45.424Z,85.22
2023-04-11T07:19:45.424Z,84.50
2023-04-11T07:20:45.433Z,82.90
2023-04-11T07:21:45.413Z,84.44
2023-04-11T07:22:45.448Z,84.09
2023-04-11T07:23:45.401Z,84.39
2023-04-11T07:24:45.380Z,83.88
2023-04-11T07:25:45.398Z,82.45
2023-04-11T07:26:45.347Z,82.35
2023-04-11T07:27:45.360Z,82.55
2023-04-11T07:28:45.350Z,82.65
2023-04-11T07:29:45.308Z,82.65
2023-04-11T07:30:45.360Z,82.04
2023-04-11T07:31:45.436Z,81.63
2023-04-11T07:32:45.366Z,81.59
2023-04-11T07:33:45.304Z,78.86
2023-04-11T07:34:45.282Z,80.36
2023-04-11T07:35:45.302Z,81.08
2023-04-11T07:36:45.239Z,79.58
2023-04-11T07:37:45.264Z,79.96
2023-04-11T07:38:45.247Z,79.06
2023-04-11T07:39:45.257Z,78.00
2023-04-11T07:40:45.210Z,76.71
2023-04-11T07:41:45.187Z,76.61
2023-04-11T07:42:45.185Z,78.96
2023-04-11T07:43:45.160Z,80.69
2023-04-11T07:44:45.158Z,78.72
2023-04-11T07:45:45.185Z,79.07
2023-04-11T07:46:45.157Z,79.41
2023-04-11T07:47:45.206Z,80.51
2023-04-11T07:48:45.130Z,78.90
2023-04-11T07:49:45.093Z,79.45
2023-04-11T07:50:45.111Z,77.59
2023-04-11T07:51:45.073Z,74.90
2023-04-11T07:52:45.067Z,70.78
2023-04-11T07:53:45.053Z,73.68
2023-04-11T07:54:45.046Z,75.38
2023-04-11T07:55:45.057Z,74.97
2023-04-11T07:56:45.042Z,76.54
2023-04-11T07:57:45.005Z,78.21
2023-04-11T07:58:45.018Z,78.86
2023-04-11T07:59:44.983Z,78.45
2023-04-11T08:00:45.005Z,77.87
2023-04-11T08:01:45.055Z,73.23
2023-04-11T08:02:45.116Z,71.26
2023-04-11T08:03:45.006Z,68.92
2023-04-11T08:04:45.148Z,68.21
2023-04-11T08:05:44.967Z,67.65
2023-04-11T08:06:44.920Z,67.82
2023-04-11T08:07:44.907Z,69.21
2023-04-11T08:08:44.910Z,68.30
2023-04-11T08:09:44.952Z,68.70
2023-04-11T08:10:44.922Z,69.28
2023-04-11T08:11:44.876Z,72.14
2023-04-11T08:12:44.876Z,73.40
2023-04-11T08:13:44.843Z,73.68
2023-04-11T08:14:44.870Z,73.68
2023-04-11T08:15:44.821Z,74.39
2023-04-11T08:16:44.844Z,74.08
2023-04-11T08:17:44.838Z,74.39
2023-04-11T08:18:44.812Z,71.35
2023-04-11T08:19:44.848Z,71.86
2023-04-11T08:20:44.797Z,71.56
2023-04-11T08:21:44.767Z,70.97
2023-04-11T08:22:44.839Z,74.02
2023-04-11T08:23:44.772Z,72.27
2023-04-11T08:24:44.806Z,73.30
2023-04-11T08:25:44.730Z,71.04
2023-04-11T08:26:44.716Z,69.41
2023-04-11T08:27:44.709Z,69.78
2023-04-11T08:28:44.755Z,73.19
2023-04-11T08:29:44.725Z,72.72
2023-04-11T08:30:44.710Z,71.04
2023-04-11T08:31:44.690Z,68.54
2023-04-11T08:32:44.735Z,63.54
2023-04-11T08:33:44.761Z,68.87
2023-04-11T08:34:44.689Z,65.14
2023-04-11T08:35:44.645Z,63.29
2023-04-11T08:36:44.650Z,60.33
2023-04-11T08:37:44.651Z,61.72
2023-04-11T08:38:44.592Z,60.80
2023-04-11T08:39:44.613Z,61.51
2023-04-11T08:40:44.576Z,61.37
2023-04-11T08:41:44.594Z,65.08
2023-04-11T08:42:44.553Z,66.50
2023-04-11T08:43:44.558Z,67.21
2023-04-11T08:44:44.568Z,65.20
2023-04-11T08:45:44.562Z,65.37
2023-04-11T08:46:44.532Z,66.09
2023-04-11T08:47:45.586Z,64.75
2023-04-11T08:48:44.486Z,68.70
2023-04-11T08:49:44.526Z,66.59
2023-04-11T08:50:44.470Z,67.11
2023-04-11T08:51:44.492Z,66.80
2023-04-11T08:52:45.201Z,61.90
2023-04-11T08:53:44.461Z,62.35
2023-04-11T08:54:44.485Z,59.84
2023-04-11T08:55:44.436Z,62.48
2023-04-11T08:56:44.418Z,63.79
2023-04-11T08:57:44.411Z,64.40
2023-04-11T08:58:44.397Z,64.11
2023-04-11T08:59:44.413Z,66.02
2023-04-11T09:00:44.358Z,68.09
2023-04-11T09:01:44.437Z,69.48
2023-04-11T09:02:44.409Z,68.90
2023-04-11T09:03:44.378Z,70.47
2023-04-11T09:04:44.418Z,68.97
2023-04-11T09:05:44.311Z,69.41
2023-04-11T09:06:44.326Z,69.92
2023-04-11T09:07:44.298Z,70.67
2023-04-11T09:08:44.272Z,72.99
2023-04-11T09:09:44.311Z,72.17
2023-04-11T09:10:44.256Z,72.38
2023-04-11T09:11:44.245Z,70.71
2023-04-11T09:12:44.232Z,71.46
2023-04-11T09:13:44.242Z,68.98
2023-04-11T09:14:44.489Z,67.45
2023-04-11T09:15:44.232Z,67.59
2023-04-11T09:16:44.188Z,65.70
2023-04-11T09:17:44.261Z,62.46
2023-04-11T09:18:44.206Z,61.91
2023-04-11T09:19:45.634Z,63.90
2023-04-11T09:20:44.142Z,66.68
2023-04-11T09:21:44.143Z,67.15
2023-04-11T09:22:44.135Z,65.37
2023-04-11T09:23:44.123Z,65.77
2023-04-11T09:24:44.136Z,69.45
2023-04-11T09:25:44.116Z,71.50
2023-04-11T09:26:44.097Z,68.57
2023-04-11T09:27:44.077Z,70.06
2023-04-11T09:28:44.073Z,72.04
2023-04-11T09:29:44.088Z,71.94
2023-04-11T09:30:44.053Z,73.71
2023-04-11T09:31:44.082Z,74.94
2023-04-11T09:32:44.053Z,74.56
2023-04-11T09:33:44.023Z,77.26
2023-04-11T09:34:44.045Z,83.45
2023-04-11T09:35:44.122Z,87.10
2023-04-11T09:36:43.993Z,91.39
2023-04-11T09:37:44.034Z,94.67
2023-04-11T09:38:44.041Z,94.76
2023-04-11T09:39:51.524Z,96.03
2023-04-11T09:40:43.976Z,98.80
2023-04-11T09:41:43.982Z,99.99
2023-04-11T09:42:43.944Z,99.99
2023-04-11T09:43:43.936Z,99.99
2023-04-11T09:44:43.954Z,99.99
2023-04-11T09:45:53.685Z,99.99
2023-04-11T09:46:43.940Z,99.99
2023-04-11T09:47:44.822Z,99.99
2023-04-11T09:48:46.992Z,99.99
2023-04-11T09:49:43.950Z,99.99
2023-04-11T09:50:43.876Z,99.99
2023-04-11T09:51:43.877Z,99.99
2023-04-11T09:52:43.828Z,99.99
2023-04-11T09:53:43.868Z,99.99
2023-04-11T09:54:43.870Z,99.99
2023-04-11T09:55:43.844Z,99.99
2023-04-11T09:56:43.791Z,99.99
2023-04-11T09:57:43.779Z,99.99
2023-04-11T09:58:43.792Z,99.99
2023-04-11T09:59:43.843Z,99.99
2023-04-11T10:00:43.758Z,99.99
2023-04-11T10:01:43.823Z,99.99
2023-04-11T10:02:43.855Z,99.99
2023-04-11T10:03:43.762Z,99.99
2023-04-11T10:04:43.771Z,94.05
2023-04-11T10:05:43.737Z,87.22
2023-04-11T10:06:43.715Z,86.71
2023-04-11T10:07:43.687Z,88.88
2023-04-11T10:08:43.692Z,86.40
2023-04-11T10:09:43.717Z,86.69
2023-04-11T10:10:43.644Z,86.55
2023-04-11T10:11:43.657Z,87.82
2023-04-11T10:12:43.652Z,82.94
2023-04-11T10:13:43.625Z,79.71
2023-04-11T10:14:43.669Z,77.84
2023-04-11T10:15:43.617Z,79.81
2023-04-11T10:16:43.625Z,80.96
2023-04-11T10:17:43.590Z,78.44
2023-04-11T10:18:43.575Z,79.13
2023-04-11T10:19:43.601Z,78.47
2023-04-11T10:20:43.539Z,84.07
2023-04-11T10:21:43.580Z,86.58
2023-04-11T10:22:43.934Z,90.01
2023-04-11T10:23:43.515Z,88.14
2023-04-11T10:24:43.529Z,89.83
2023-04-11T10:25:43.490Z,92.19
2023-04-11T10:26:43.474Z,93.73
2023-04-11T10:27:43.468Z,91.61
2023-04-11T10:28:43.450Z,91.61
2023-04-11T10:29:43.508Z,92.38
2023-04-11T10:30:43.447Z,92.38
2023-04-11T10:31:43.445Z,94.48
2023-04-11T10:32:43.429Z,95.81
2023-04-11T10:33:43.407Z,99.99
2023-04-11T10:34:43.413Z,96.21
2023-04-11T10:35:43.409Z,97.14
2023-04-11T10:36:43.380Z,98.58
2023-04-11T10:37:43.376Z,99.99
2023-04-11T10:38:43.462Z,99.30
2023-04-11T10:39:43.404Z,99.19
2023-04-11T10:40:43.325Z,99.99
2023-04-11T10:41:43.344Z,96.37
2023-04-11T10:42:43.312Z,94.95
2023-04-11T10:43:43.309Z,91.49
2023-04-11T10:44:43.302Z,86.67
2023-04-11T10:45:43.298Z,85.75
2023-04-11T10:46:43.309Z,87.63
2023-04-11T10:47:43.312Z,84.99
2023-04-11T10:48:43.241Z,86.36
2023-04-11T10:49:44.934Z,83.14
2023-04-11T10:50:43.229Z,82.07
2023-04-11T10:51:43.221Z,78.16
2023-04-11T10:52:43.205Z,76.69
2023-04-11T10:53:43.226Z,75.74
2023-04-11T10:54:43.229Z,78.08
2023-04-11T10:55:43.173Z,75.43
2023-04-11T10:56:43.206Z,75.67
2023-04-11T10:57:43.166Z,79.33
2023-04-11T10:58:43.144Z,75.02
2023-04-11T10:59:43.199Z,72.82
2023-04-11T11:00:43.169Z,69.91
2023-04-11T11:02:43.400Z,73.33
2023-04-11T11:03:43.244Z,69.17
2023-04-11T11:04:43.248Z,68.59
2023-04-11T11:05:43.075Z,70.42
2023-04-11T11:06:50.817Z,75.56
2023-04-11T11:07:43.082Z,76.09
2023-04-11T11:08:43.034Z,70.59
2023-04-11T11:09:43.097Z,64.72
2023-04-11T11:10:43.036Z,67.21
2023-04-11T11:11:43.011Z,66.74
2023-04-11T11:12:42.996Z,64.99
2023-04-11T11:13:42.997Z,62.93
2023-04-11T11:14:43.001Z,68.26
2023-04-11T11:15:42.983Z,69.14
2023-04-11T11:16:43.445Z,65.34
2023-04-11T11:17:43.030Z,58.63
2023-04-11T11:18:42.931Z,63.08
2023-04-11T11:19:42.942Z,60.36
2023-04-11T11:20:42.914Z,66.10
2023-04-11T11:21:42.904Z,64.15
2023-04-11T11:22:42.892Z,61.69
2023-04-11T11:23:42.870Z,61.23
2023-04-11T11:24:42.899Z,66.71
2023-04-11T11:25:42.854Z,58.74
2023-04-11T11:26:42.861Z,64.83
2023-04-11T11:27:42.857Z,66.14
2023-04-11T11:28:42.832Z,69.09
2023-04-11T11:29:42.852Z,58.88
2023-04-11T11:30:42.811Z,62.14
2023-04-11T11:31:42.864Z,57.55
2023-04-11T11:32:42.794Z,59.77
2023-04-11T11:33:42.785Z,62.84
2023-04-11T11:34:42.755Z,65.39
2023-04-11T11:35:42.775Z,69.90
2023-04-11T11:36:42.762Z,69.36
2023-04-11T11:37:42.749Z,60.52
2023-04-11T11:38:42.746Z,60.97
2023-04-11T11:39:42.708Z,58.67
2023-04-11T11:40:42.738Z,59.66
2023-04-11T11:41:42.685Z,62.70
2023-04-11T11:42:42.674Z,63.06
2023-04-11T11:43:42.676Z,61.87
2023-04-11T11:44:42.638Z,60.16
2023-04-11T11:45:42.667Z,65.92
2023-04-11T11:46:42.677Z,59.52
2023-04-11T11:47:42.694Z,58.78
2023-04-11T11:48:42.603Z,55.70
2023-04-11T11:49:42.611Z,54.36
2023-04-11T11:50:42.626Z,53.85
2023-04-11T11:51:42.576Z,57.75
2023-04-11T11:52:42.590Z,55.49
2023-04-11T11:53:42.562Z,54.96
2023-04-11T11:54:42.574Z,54.74
2023-04-11T11:55:42.645Z,56.82
2023-04-11T11:56:42.537Z,60.02
2023-04-11T11:57:42.513Z,60.79
2023-04-11T11:58:42.528Z,63.42
2023-04-11T11:59:42.511Z,63.79
2023-04-11T12:00:42.538Z,63.82
2023-04-11T12:01:42.479Z,61.80
2023-04-11T12:02:43.068Z,58.03
2023-04-11T12:03:42.554Z,60.48
2023-04-11T12:04:42.762Z,59.77
2023-04-11T12:05:42.426Z,57.46
2023-04-11T12:06:42.421Z,51.46
2023-04-11T12:07:42.421Z,54.92
2023-04-11T12:08:42.395Z,50.49
2023-04-11T12:09:42.428Z,51.75
2023-04-11T12:10:42.408Z,55.32
2023-04-11T12:11:42.381Z,53.85
2023-04-11T12:12:42.349Z,55.83
2023-04-11T12:13:42.338Z,55.10
2023-04-11T12:14:42.322Z,58.11
2023-04-11T12:15:42.360Z,58.07
2023-04-11T12:16:42.311Z,51.65
2023-04-11T12:17:42.336Z,53.58
2023-04-11T12:18:42.281Z,54.64
2023-04-11T12:19:42.275Z,55.19
2023-04-11T12:20:42.287Z,51.73
2023-04-11T12:21:42.254Z,52.03
2023-04-11T12:22:42.250Z,51.65
2023-04-11T12:23:42.230Z,52.79
2023-04-11T12:24:42.248Z,53.58
2023-04-11T12:25:42.215Z,52.69
2023-04-11T12:26:57.487Z,54.05
2023-04-11T12:27:42.198Z,55.32
2023-04-11T12:28:42.181Z,50.26
2023-04-11T12:29:42.208Z,53.45
2023-04-11T12:30:42.157Z,53.90
2023-04-11T12:31:44.446Z,52.87
2023-04-11T12:32:42.181Z,52.46
2023-04-11T12:33:42.131Z,48.67
2023-04-11T12:34:42.138Z,54.03
2023-04-11T12:35:42.105Z,50.61
2023-04-11T12:36:42.099Z,50.51
2023-04-11T12:37:42.102Z,49.60
2023-04-11T12:38:42.082Z,52.79
2023-04-11T12:39:42.116Z,49.61
2023-04-11T12:40:42.063Z,48.82
2023-04-11T12:41:42.044Z,51.95
2023-04-11T12:43:42.045Z,51.93
2023-04-11T12:44:42.039Z,50.13
2023-04-11T12:45:42.000Z,52.61
2023-04-11T12:46:42.035Z,58.15
2023-04-11T12:47:42.023Z,57.43
2023-04-11T12:48:41.978Z,52.26
2023-04-11T12:49:41.963Z,53.39
2023-04-11T12:50:41.992Z,56.73
2023-04-11T12:51:41.959Z,55.20
2023-04-11T12:52:41.941Z,53.30
2023-04-11T12:53:41.925Z,50.09
2023-04-11T12:54:41.929Z,48.51
2023-04-11T12:55:41.974Z,51.83
2023-04-11T12:56:41.906Z,49.22
2023-04-11T12:57:41.890Z,54.00
2023-04-11T12:58:41.899Z,52.64
2023-04-11T12:59:41.851Z,54.18
2023-04-11T13:00:41.896Z,53.47
2023-04-11T13:01:41.973Z,53.93
2023-04-11T13:02:44.510Z,57.21
2023-04-11T13:03:41.963Z,57.62
2023-04-11T13:04:41.954Z,59.01
2023-04-11T13:05:41.809Z,56.09
2023-04-11T13:06:41.782Z,52.23
2023-04-11T13:07:41.771Z,54.24
2023-04-11T13:08:41.761Z,49.30
2023-04-11T13:09:41.784Z,51.37
2023-04-11T13:10:41.823Z,52.03
2023-04-11T13:11:41.720Z,48.57
2023-04-11T13:12:41.892Z,47.88
2023-04-11T13:13:41.728Z,51.65
2023-04-11T13:14:41.774Z,49.83
2023-04-11T13:15:41.688Z,52.13
2023-04-11T13:16:41.704Z,54.33
2023-04-11T13:17:41.684Z,53.72
2023-04-11T13:18:41.659Z,48.74
2023-04-11T13:19:41.672Z,49.02
2023-04-11T13:20:41.636Z,50.08
2023-04-11T13:21:41.621Z,53.04
2023-04-11T13:22:41.610Z,53.02
2023-04-11T13:23:41.597Z,51.87
2023-04-11T13:24:41.630Z,49.04
2023-04-11T13:25:41.586Z,49.38
2023-04-11T13:26:41.579Z,47.13
2023-04-11T13:27:41.554Z,49.11
2023-04-11T13:28:41.687Z,52.36
2023-04-11T13:29:41.541Z,46.78
2023-04-11T13:30:41.566Z,47.35
2023-04-11T13:31:41.642Z,50.79
2023-04-11T13:32:41.567Z,51.39
2023-04-11T13:33:41.480Z,54.49
2023-04-11T13:34:41.516Z,55.10
2023-04-11T13:35:41.509Z,51.77
2023-04-11T13:36:41.492Z,51.98
2023-04-11T13:37:41.453Z,53.55
2023-04-11T13:38:41.436Z,55.60
2023-04-11T13:39:41.468Z,53.70
2023-04-11T13:40:41.462Z,55.48
2023-04-11T13:41:41.407Z,54.24
2023-04-11T13:42:41.425Z,48.87
2023-04-11T13:43:41.385Z,49.96
2023-04-11T13:44:41.399Z,49.79
2023-04-11T13:45:41.495Z,48.26
2023-04-11T13:46:41.391Z,47.60
2023-04-11T13:47:41.383Z,49.60
2023-04-11T13:48:41.334Z,51.12
2023-04-11T13:49:41.356Z,47.74
2023-04-11T13:50:41.325Z,43.85
2023-04-11T13:51:41.312Z,46.46
2023-04-11T13:52:41.303Z,45.19
2023-04-11T13:53:41.280Z,48.18
2023-04-11T13:54:41.315Z,50.27
2023-04-11T13:55:41.268Z,50.40
2023-04-11T13:56:41.277Z,50.55
2023-04-11T13:57:41.232Z,54.51
2023-04-11T13:58:41.231Z,50.75
2023-04-11T13:59:41.235Z,50.95
2023-04-11T14:00:41.238Z,51.46
2023-04-11T14:01:41.237Z,53.80
2023-04-11T14:02:41.445Z,53.34
2023-04-11T14:03:41.288Z,51.09
2023-04-11T14:04:41.233Z,44.42
2023-04-11T14:05:41.150Z,46.43
2023-04-11T14:06:41.152Z,46.02
2023-04-11T14:07:41.131Z,47.70
2023-04-11T14:08:41.132Z,46.89
2023-04-11T14:09:41.134Z,45.50
2023-04-11T14:10:41.102Z,49.04
2023-04-11T14:11:41.081Z,48.00
2023-04-11T14:12:41.087Z,46.41
2023-04-11T14:13:41.082Z,45.98
2023-04-11T14:14:41.094Z,46.89
2023-04-11T14:15:41.051Z,45.47
2023-04-11T14:16:41.130Z,47.34
2023-04-11T14:17:41.040Z,47.46
2023-04-11T14:18:41.021Z,49.33
2023-04-11T14:19:41.024Z,48.02
2023-04-11T14:20:40.990Z,48.19
2023-04-11T14:21:41.007Z,46.35
2023-04-11T14:22:40.970Z,47.62
2023-04-11T14:23:40.953Z,47.70
2023-04-11T14:24:40.984Z,43.55
2023-04-11T14:25:40.941Z,46.84
2023-04-11T14:26:40.930Z,44.72
2023-04-11T14:27:40.920Z,41.87
2023-04-11T14:28:40.906Z,40.69
2023-04-11T14:29:40.913Z,37.96
2023-04-11T14:30:41.039Z,40.77
2023-04-11T14:31:40.998Z,40.37
2023-04-11T14:32:40.923Z,41.93
2023-04-11T14:33:40.861Z,44.34
2023-04-11T14:34:40.841Z,42.94
2023-04-11T14:35:40.867Z,41.24
2023-04-11T14:36:40.858Z,44.18
2023-04-11T14:37:40.818Z,41.74
2023-04-11T14:38:40.814Z,43.51
2023-04-11T14:39:40.791Z,42.09
2023-04-11T14:40:40.807Z,45.31
2023-04-11T14:41:40.767Z,46.00
2023-04-11T14:42:40.769Z,45.09
2023-04-11T14:43:40.737Z,42.76
2023-04-11T14:44:40.742Z,44.42
2023-04-11T14:45:40.747Z,48.10
2023-04-11T14:46:40.849Z,45.29
2023-04-11T14:47:40.741Z,43.91
2023-04-11T14:48:40.691Z,47.58
2023-04-11T14:49:40.672Z,45.52
2023-04-11T14:50:40.742Z,43.71
2023-04-11T14:51:40.668Z,47.90
2023-04-11T14:52:40.646Z,46.07
2023-04-11T14:53:40.634Z,46.92
2023-04-11T14:54:40.656Z,42.54
2023-04-11T14:55:42.072Z,41.33
2023-04-11T14:56:40.632Z,44.89
2023-04-11T14:57:40.592Z,46.72
2023-04-11T14:58:40.588Z,43.14
2023-04-11T14:59:40.602Z,45.89
2023-04-11T15:00:40.569Z,45.03
2023-04-11T15:01:40.641Z,41.07
2023-04-11T15:02:40.607Z,42.31
2023-04-11T15:03:40.699Z,43.91
2023-04-11T15:04:40.590Z,44.62
2023-04-11T15:05:40.526Z,43.71
2023-04-11T15:06:40.511Z,44.42
2023-04-11T15:07:40.483Z,41.78
2023-04-11T15:08:40.481Z,42.39
2023-04-11T15:09:40.471Z,41.40
2023-04-11T15:10:40.496Z,44.13
2023-04-11T15:11:40.443Z,42.41
2023-04-11T15:12:40.438Z,45.56
2023-04-11T15:13:40.428Z,45.84
2023-04-11T15:14:40.436Z,41.50
2023-04-11T15:15:40.425Z,42.33
2023-04-11T15:16:40.393Z,42.55
2023-04-11T15:17:40.436Z,45.07
2023-04-11T15:18:40.374Z,42.84
2023-04-11T15:19:40.389Z,45.05
2023-04-11T15:20:40.352Z,43.43
2023-04-11T15:21:40.340Z,42.63
2023-04-11T15:22:41.423Z,41.21
2023-04-11T15:23:40.317Z,42.33
2023-04-11T15:24:40.370Z,43.44
2023-04-11T15:25:40.296Z,42.25
2023-04-11T15:26:40.295Z,40.72
2023-04-11T15:27:40.280Z,40.52
2023-04-11T15:28:40.265Z,42.63
2023-04-11T15:29:40.276Z,40.30
2023-04-11T15:30:40.244Z,42.74
2023-04-11T15:31:40.300Z,41.62
2023-04-11T15:32:40.264Z,42.41
2023-04-11T15:33:40.231Z,44.65
2023-04-11T15:34:40.232Z,41.40
2023-04-11T15:35:40.213Z,39.18
2023-04-11T15:36:40.179Z,40.81
2023-04-11T15:37:40.174Z,43.43
2023-04-11T15:38:40.201Z,44.65
2023-04-11T15:39:40.164Z,41.52
2023-04-11T15:40:40.171Z,44.16
2023-04-11T15:41:40.133Z,41.80
2023-04-11T15:42:40.182Z,40.09
2023-04-11T15:43:40.146Z,40.30
2023-04-11T15:44:40.116Z,46.09
2023-04-11T15:45:40.082Z,41.01
2023-04-11T15:46:40.128Z,39.89
2023-04-11T15:47:40.078Z,39.78
2023-04-11T15:48:40.068Z,39.98
2023-04-11T15:49:40.085Z,39.08
2023-04-11T15:50:40.034Z,42.92
2023-04-11T15:51:40.036Z,41.21
2023-04-11T15:52:40.011Z,44.04
2023-04-11T15:53:39.998Z,42.74
2023-04-11T15:54:40.064Z,46.67
2023-04-11T15:55:39.977Z,41.88
2023-04-11T15:56:39.979Z,44.01
2023-04-11T15:57:39.966Z,46.83
2023-04-11T15:58:39.946Z,40.95
2023-04-11T15:59:39.975Z,44.38
2023-04-11T16:00:39.958Z,42.96
2023-04-11T16:01:40.020Z,48.51
2023-04-11T16:02:40.054Z,41.83
2023-04-11T16:03:40.087Z,41.03
2023-04-11T16:04:39.942Z,41.58
2023-04-11T16:05:39.879Z,41.64
2023-04-11T16:06:39.868Z,42.98
2023-04-11T16:07:39.890Z,46.15
2023-04-11T16:08:39.891Z,45.06
2023-04-11T16:09:39.874Z,42.83
2023-04-11T16:10:39.844Z,46.91
2023-04-11T16:11:39.817Z,44.59
2023-04-11T16:12:39.801Z,45.10
2023-04-11T16:13:40.189Z,44.69
2023-04-11T16:14:39.809Z,45.40
2023-04-11T16:15:39.773Z,44.26
2023-04-11T16:16:39.888Z,46.07
2023-04-11T16:17:39.799Z,44.22
2023-04-11T16:18:39.743Z,42.17
2023-04-11T16:19:39.765Z,43.18
2023-04-11T16:20:39.734Z,43.49
2023-04-11T16:21:39.716Z,43.69
2023-04-11T16:22:39.696Z,44.71
2023-04-11T16:23:39.690Z,46.49
2023-04-11T16:24:39.706Z,49.03
2023-04-11T16:25:39.676Z,47.59
2023-04-11T16:26:39.657Z,41.80
2023-04-11T16:27:39.648Z,42.84
2023-04-11T16:28:39.654Z,43.35
2023-04-11T16:29:39.658Z,45.37
2023-04-11T16:30:39.619Z,40.72
2023-04-11T16:31:39.654Z,40.75
2023-04-11T16:32:39.618Z,41.25
2023-04-11T16:33:39.637Z,42.57
2023-04-11T16:34:39.603Z,42.47
2023-04-11T16:35:39.621Z,45.90
2023-04-11T16:36:39.563Z,43.08
2023-04-11T16:37:39.559Z,42.39
2023-04-11T16:38:39.554Z,45.24
2023-04-11T16:39:39.593Z,44.22
2023-04-11T16:40:39.539Z,43.10
2023-04-11T16:41:39.508Z,43.10
2023-04-11T16:42:39.519Z,41.88
2023-04-11T16:43:39.492Z,42.51
2023-04-11T16:44:39.485Z,43.93
2023-04-11T16:45:39.509Z,44.34
2023-04-11T16:46:39.485Z,43.73
2023-04-11T16:47:39.490Z,42.51
2023-04-11T16:48:39.449Z,45.06
2023-04-11T16:49:39.435Z,45.06
2023-04-11T16:50:39.443Z,43.12
2023-04-11T16:51:39.408Z,43.53
2023-04-11T16:52:39.398Z,45.67
2023-04-11T16:53:39.374Z,43.63
2023-04-11T16:54:39.391Z,43.23